sensor_id;sensor_type;location;lat;lon;timestamp;pressure;altitude;pressure_sealevel;temperature;humidity
72677;BME280;60755;51.374;10.662;2023-11-19T00:01:03;96827.63;;;5.32;100.00
72677;BME280;60755;51.374;10.662;2023-11-19T00:03:31;96813.41;;;5.28;100.00
72677;BME280;60755;51.374;10.662;2023-11-19T00:05:59;96795.34;;;5.33;100.00
72677;BME280;60755;51.374;10.662;2023-11-19T00:08:26;96802.66;;;5.18;100.00
72677;BME280;60755;51.374;10.662;2023-11-19T00:10:53;96805.44;;;4.91;100.00
72677;BME280;60755;51.374;10.662;2023-11-19T00:13:20;96807.50;;;5.14;100.00
72677;BME280;60755;51.374;10.662;2023-11-19T00:15:46;96802.66;;;5.18;100.00
72677;BME280;60755;51.374;10.662;2023-11-19T00:18:15;96792.56;;;5.28;100.00
72677;BME280;60755;51.374;10.662;2023-11-19T00:20:42;96800.66;;;5.20;100.00
72677;BME280;60755;51.374;10.662;2023-11-19T00:23:10;96799.63;;;5.21;100.00
72677;BME280;60755;51.374;10.662;2023-11-19T00:25:37;96792.66;;;5.21;100.00
72677;BME280;60755;51.374;10.662;2023-11-19T00:28:04;96776.19;;;5.21;100.00
72677;BME280;60755;51.374;10.662;2023-11-19T00:30:32;96772.25;;;5.12;100.00
72677;BME280;60755;51.374;10.662;2023-11-19T00:32:59;96778.84;;;5.64;99.51
72677;BME280;60755;51.374;10.662;2023-11-19T00:35:27;96777.44;;;5.43;99.83
72677;BME280;60755;51.374;10.662;2023-11-19T00:37:54;96762.19;;;5.22;100.00
72677;BME280;60755;51.374;10.662;2023-11-19T00:40:21;96753.13;;;5.24;100.00
72677;BME280;60755;51.374;10.662;2023-11-19T00:42:48;96742.00;;;5.11;100.00
72677;BME280;60755;51.374;10.662;2023-11-19T00:45:16;96739.06;;;5.07;100.00
72677;BME280;60755;51.374;10.662;2023-11-19T00:47:42;96728.75;;;5.37;100.00
72677;BME280;60755;51.374;10.662;2023-11-19T00:50:10;96723.31;;;5.20;100.00
72677;BME280;60755;51.374;10.662;2023-11-19T00:52:39;96721.72;;;5.19;100.00
72677;BME280;60755;51.374;10.662;2023-11-19T00:55:06;96722.50;;;5.20;100.00
72677;BME280;60755;51.374;10.662;2023-11-19T00:57:34;96720.28;;;5.23;100.00
72677;BME280;60755;51.374;10.662;2023-11-19T01:00:01;96720.50;;;5.22;100.00
72677;BME280;60755;51.374;10.662;2023-11-19T01:02:32;96727.78;;;5.38;100.00
72677;BME280;60755;51.374;10.662;2023-11-19T01:05:00;96720.81;;;5.32;100.00
72677;BME280;60755;51.374;10.662;2023-11-19T01:07:27;96734.19;;;5.36;100.00
72677;BME280;60755;51.374;10.662;2023-11-19T01:09:55;96726.38;;;5.36;100.00
72677;BME280;60755;51.374;10.662;2023-11-19T01:12:23;96719.53;;;5.41;100.00
72677;BME280;60755;51.374;10.662;2023-11-19T01:14:50;96708.88;;;5.43;100.00
72677;BME280;60755;51.374;10.662;2023-11-19T01:17:17;96693.78;;;5.51;100.00
72677;BME280;60755;51.374;10.662;2023-11-19T01:19:44;96692.28;;;5.62;100.00
72677;BME280;60755;51.374;10.662;2023-11-19T01:22:11;96680.44;;;5.41;100.00
72677;BME280;60755;51.374;10.662;2023-11-19T01:24:38;96679.44;;;5.42;100.00
72677;BME280;60755;51.374;10.662;2023-11-19T01:27:06;96669.06;;;5.36;100.00
72677;BME280;60755;51.374;10.662;2023-11-19T01:29:34;96665.66;;;5.35;100.00
72677;BME280;60755;51.374;10.662;2023-11-19T01:32:01;96668.78;;;5.44;100.00
72677;BME280;60755;51.374;10.662;2023-11-19T01:34:27;96664.53;;;5.49;100.00
72677;BME280;60755;51.374;10.662;2023-11-19T01:36:55;96656.72;;;5.49;100.00
72677;BME280;60755;51.374;10.662;2023-11-19T01:39:22;96653.09;;;5.50;100.00
72677;BME280;60755;51.374;10.662;2023-11-19T01:41:48;96651.50;;;5.49;100.00
72677;BME280;60755;51.374;10.662;2023-11-19T01:44:17;96644.41;;;5.56;100.00
72677;BME280;60755;51.374;10.662;2023-11-19T01:46:45;96634.16;;;5.61;100.00
72677;BME280;60755;51.374;10.662;2023-11-19T01:49:14;96630.50;;;5.81;100.00
72677;BME280;60755;51.374;10.662;2023-11-19T01:51:42;96630.19;;;5.89;100.00
72677;BME280;60755;51.374;10.662;2023-11-19T01:54:09;96616.13;;;5.90;100.00
72677;BME280;60755;51.374;10.662;2023-11-19T01:56:38;96609.06;;;5.97;100.00
72677;BME280;60755;51.374;10.662;2023-11-19T01:59:09;96613.41;;;6.03;100.00
72677;BME280;60755;51.374;10.662;2023-11-19T02:01:40;96604.97;;;6.01;100.00
72677;BME280;60755;51.374;10.662;2023-11-19T02:04:08;96600.94;;;6.05;100.00
72677;BME280;60755;51.374;10.662;2023-11-19T02:06:38;96579.66;;;6.20;100.00
72677;BME280;60755;51.374;10.662;2023-11-19T02:09:07;96593.13;;;6.17;100.00
72677;BME280;60755;51.374;10.662;2023-11-19T02:11:35;96597.22;;;6.25;100.00
72677;BME280;60755;51.374;10.662;2023-11-19T02:14:04;96593.50;;;6.32;100.00
72677;BME280;60755;51.374;10.662;2023-11-19T02:16:31;96577.91;;;6.44;100.00
72677;BME280;60755;51.374;10.662;2023-11-19T02:18:59;96577.91;;;6.56;100.00
72677;BME280;60755;51.374;10.662;2023-11-19T02:21:26;96587.69;;;6.60;100.00
72677;BME280;60755;51.374;10.662;2023-11-19T02:23:53;96577.00;;;6.50;100.00
72677;BME280;60755;51.374;10.662;2023-11-19T02:26:27;96584.72;;;6.57;100.00
72677;BME280;60755;51.374;10.662;2023-11-19T02:28:57;96568.25;;;6.56;100.00
72677;BME280;60755;51.374;10.662;2023-11-19T02:31:24;96572.13;;;6.65;100.00
72677;BME280;60755;51.374;10.662;2023-11-19T02:33:53;96575.09;;;6.81;100.00
72677;BME280;60755;51.374;10.662;2023-11-19T02:36:20;96589.41;;;6.78;100.00
72677;BME280;60755;51.374;10.662;2023-11-19T02:38:48;96575.41;;;6.72;100.00
72677;BME280;60755;51.374;10.662;2023-11-19T02:41:15;96583.28;;;6.84;100.00
72677;BME280;60755;51.374;10.662;2023-11-19T02:43:42;96588.03;;;6.87;100.00
72677;BME280;60755;51.374;10.662;2023-11-19T02:46:10;96582.47;;;6.84;100.00
72677;BME280;60755;51.374;10.662;2023-11-19T02:48:37;96580.56;;;6.91;100.00
72677;BME280;60755;51.374;10.662;2023-11-19T02:51:06;96575.34;;;6.91;100.00
72677;BME280;60755;51.374;10.662;2023-11-19T02:53:35;96569.50;;;6.89;100.00
72677;BME280;60755;51.374;10.662;2023-11-19T02:56:03;96561.69;;;6.89;100.00
72677;BME280;60755;51.374;10.662;2023-11-19T02:58:42;96549.22;;;6.91;100.00
72677;BME280;60755;51.374;10.662;2023-11-19T03:01:12;96563.38;;;6.95;100.00
72677;BME280;60755;51.374;10.662;2023-11-19T03:03:48;96552.28;;;6.99;100.00
72677;BME280;60755;51.374;10.662;2023-11-19T03:06:19;96555.69;;;7.00;100.00
72677;BME280;60755;51.374;10.662;2023-11-19T03:08:47;96543.50;;;7.06;100.00
72677;BME280;60755;51.374;10.662;2023-11-19T03:11:14;96539.31;;;6.93;100.00
72677;BME280;60755;51.374;10.662;2023-11-19T03:13:41;96527.69;;;7.12;100.00
72677;BME280;60755;51.374;10.662;2023-11-19T03:16:08;96523.03;;;7.26;100.00
72677;BME280;60755;51.374;10.662;2023-11-19T03:18:38;96513.50;;;7.20;100.00
72677;BME280;60755;51.374;10.662;2023-11-19T03:21:07;96522.25;;;7.25;100.00
72677;BME280;60755;51.374;10.662;2023-11-19T03:23:35;96522.53;;;7.41;100.00
72677;BME280;60755;51.374;10.662;2023-11-19T03:26:02;96523.56;;;7.40;100.00
72677;BME280;60755;51.374;10.662;2023-11-19T03:28:31;96518.59;;;7.38;100.00
72677;BME280;60755;51.374;10.662;2023-11-19T03:30:58;96520.97;;;7.40;100.00
72677;BME280;60755;51.374;10.662;2023-11-19T03:33:25;96516.03;;;7.55;100.00
72677;BME280;60755;51.374;10.662;2023-11-19T03:35:56;96514.16;;;7.39;100.00
72677;BME280;60755;51.374;10.662;2023-11-19T03:38:23;96500.13;;;7.45;100.00
72677;BME280;60755;51.374;10.662;2023-11-19T03:40:50;96495.91;;;7.55;100.00
72677;BME280;60755;51.374;10.662;2023-11-19T03:43:17;96496.81;;;7.49;100.00
72677;BME280;60755;51.374;10.662;2023-11-19T03:45:45;96498.16;;;7.52;100.00
72677;BME280;60755;51.374;10.662;2023-11-19T03:48:13;96495.66;;;7.57;100.00
72677;BME280;60755;51.374;10.662;2023-11-19T03:50:42;96501.00;;;7.62;100.00
72677;BME280;60755;51.374;10.662;2023-11-19T03:53:11;96494.13;;;7.73;100.00
72677;BME280;60755;51.374;10.662;2023-11-19T03:55:39;96487.91;;;7.62;100.00
72677;BME280;60755;51.374;10.662;2023-11-19T03:58:06;96486.03;;;7.74;100.00
72677;BME280;60755;51.374;10.662;2023-11-19T04:00:33;96495.94;;;7.72;100.00
72677;BME280;60755;51.374;10.662;2023-11-19T04:02:59;96495.28;;;7.65;100.00
72677;BME280;60755;51.374;10.662;2023-11-19T04:05:27;96492.28;;;7.73;100.00
72677;BME280;60755;51.374;10.662;2023-11-19T04:07:54;96480.38;;;7.66;100.00
72677;BME280;60755;51.374;10.662;2023-11-19T04:10:22;96475.28;;;7.59;100.00
72677;BME280;60755;51.374;10.662;2023-11-19T04:12:49;96476.91;;;7.77;100.00
72677;BME280;60755;51.374;10.662;2023-11-19T04:15:16;96455.19;;;7.76;100.00
72677;BME280;60755;51.374;10.662;2023-11-19T04:17:43;96451.38;;;7.67;100.00
72677;BME280;60755;51.374;10.662;2023-11-19T04:20:11;96449.72;;;7.78;100.00
72677;BME280;60755;51.374;10.662;2023-11-19T04:22:39;96449.25;;;7.64;100.00
72677;BME280;60755;51.374;10.662;2023-11-19T04:25:07;96456.47;;;7.74;100.00
72677;BME280;60755;51.374;10.662;2023-11-19T04:27:35;96464.63;;;7.77;100.00
72677;BME280;60755;51.374;10.662;2023-11-19T04:30:03;96452.59;;;7.76;100.00
72677;BME280;60755;51.374;10.662;2023-11-19T04:32:31;96449.03;;;7.82;100.00
72677;BME280;60755;51.374;10.662;2023-11-19T04:34:58;96457.53;;;7.90;100.00
72677;BME280;60755;51.374;10.662;2023-11-19T04:37:25;96443.25;;;7.80;100.00
72677;BME280;60755;51.374;10.662;2023-11-19T04:39:52;96442.75;;;7.83;100.00
72677;BME280;60755;51.374;10.662;2023-11-19T04:42:19;96444.84;;;7.81;100.00
72677;BME280;60755;51.374;10.662;2023-11-19T04:44:50;96438.28;;;7.96;100.00
72677;BME280;60755;51.374;10.662;2023-11-19T04:47:17;96446.50;;;7.88;100.00
72677;BME280;60755;51.374;10.662;2023-11-19T04:49:44;96443.50;;;7.96;100.00
72677;BME280;60755;51.374;10.662;2023-11-19T04:52:11;96433.97;;;7.90;100.00
72677;BME280;60755;51.374;10.662;2023-11-19T04:54:41;96427.97;;;8.06;100.00
72677;BME280;60755;51.374;10.662;2023-11-19T04:57:08;96429.84;;;7.94;100.00
72677;BME280;60755;51.374;10.662;2023-11-19T04:59:36;96440.31;;;7.94;100.00
72677;BME280;60755;51.374;10.662;2023-11-19T05:02:05;96434.28;;;7.93;100.00
72677;BME280;60755;51.374;10.662;2023-11-19T05:04:32;96430.03;;;8.04;100.00
72677;BME280;60755;51.374;10.662;2023-11-19T05:06:59;96438.41;;;8.06;100.00
72677;BME280;60755;51.374;10.662;2023-11-19T05:09:26;96428.25;;;8.09;100.00
72677;BME280;60755;51.374;10.662;2023-11-19T05:11:53;96433.59;;;7.98;100.00
72677;BME280;60755;51.374;10.662;2023-11-19T05:14:20;96426.78;;;7.97;100.00
72677;BME280;60755;51.374;10.662;2023-11-19T05:16:47;96436.19;;;7.98;100.00
72677;BME280;60755;51.374;10.662;2023-11-19T05:19:15;96425.25;;;8.01;100.00
72677;BME280;60755;51.374;10.662;2023-11-19T05:21:41;96422.72;;;7.89;100.00
72677;BME280;60755;51.374;10.662;2023-11-19T05:24:09;96438.97;;;7.91;100.00
72677;BME280;60755;51.374;10.662;2023-11-19T05:26:38;96440.16;;;8.00;100.00
72677;BME280;60755;51.374;10.662;2023-11-19T05:29:05;96411.72;;;8.04;100.00
72677;BME280;60755;51.374;10.662;2023-11-19T05:31:31;96413.69;;;7.97;100.00
72677;BME280;60755;51.374;10.662;2023-11-19T05:33:58;96412.88;;;8.13;100.00
72677;BME280;60755;51.374;10.662;2023-11-19T05:36:27;96418.91;;;8.13;100.00
72677;BME280;60755;51.374;10.662;2023-11-19T05:38:54;96416.69;;;8.22;100.00
72677;BME280;60755;51.374;10.662;2023-11-19T05:41:21;96412.25;;;8.23;100.00
72677;BME280;60755;51.374;10.662;2023-11-19T05:43:48;96419.06;;;8.24;100.00
72677;BME280;60755;51.374;10.662;2023-11-19T05:46:15;96411.34;;;8.34;100.00
72677;BME280;60755;51.374;10.662;2023-11-19T05:48:42;96398.13;;;8.24;100.00
72677;BME280;60755;51.374;10.662;2023-11-19T05:51:11;96400.91;;;8.17;100.00
72677;BME280;60755;51.374;10.662;2023-11-19T05:53:40;96404.16;;;8.24;100.00
72677;BME280;60755;51.374;10.662;2023-11-19T05:56:08;96397.31;;;8.40;100.00
72677;BME280;60755;51.374;10.662;2023-11-19T05:58:35;96401.78;;;8.39;100.00
72677;BME280;60755;51.374;10.662;2023-11-19T06:01:03;96390.66;;;8.32;100.00
72677;BME280;60755;51.374;10.662;2023-11-19T06:03:33;96389.84;;;8.49;100.00
72677;BME280;60755;51.374;10.662;2023-11-19T06:06:00;96387.41;;;8.42;100.00
72677;BME280;60755;51.374;10.662;2023-11-19T06:08:27;96403.84;;;8.37;100.00
72677;BME280;60755;51.374;10.662;2023-11-19T06:10:56;96394.03;;;8.50;100.00
72677;BME280;60755;51.374;10.662;2023-11-19T06:13:23;96391.44;;;8.50;100.00
72677;BME280;60755;51.374;10.662;2023-11-19T06:15:51;96392.28;;;8.55;100.00
72677;BME280;60755;51.374;10.662;2023-11-19T06:18:18;96384.75;;;8.59;100.00
72677;BME280;60755;51.374;10.662;2023-11-19T06:20:46;96394.25;;;8.65;100.00
72677;BME280;60755;51.374;10.662;2023-11-19T06:23:13;96400.28;;;8.65;100.00
72677;BME280;60755;51.374;10.662;2023-11-19T06:25:40;96393.63;;;8.58;100.00
72677;BME280;60755;51.374;10.662;2023-11-19T06:28:08;96396.66;;;8.66;100.00
72677;BME280;60755;51.374;10.662;2023-11-19T06:30:35;96394.41;;;8.75;100.00
72677;BME280;60755;51.374;10.662;2023-11-19T06:33:02;96400.09;;;8.72;100.00
72677;BME280;60755;51.374;10.662;2023-11-19T06:35:30;96408.91;;;8.66;100.00
72677;BME280;60755;51.374;10.662;2023-11-19T06:38:02;96410.53;;;8.67;100.00
72677;BME280;60755;51.374;10.662;2023-11-19T06:40:30;96411.63;;;8.71;100.00
72677;BME280;60755;51.374;10.662;2023-11-19T06:42:57;96407.41;;;8.70;100.00
72677;BME280;60755;51.374;10.662;2023-11-19T06:45:25;96420.59;;;8.75;100.00
72677;BME280;60755;51.374;10.662;2023-11-19T06:47:52;96414.56;;;8.75;100.00
72677;BME280;60755;51.374;10.662;2023-11-19T06:50:19;96420.50;;;8.70;100.00
72677;BME280;60755;51.374;10.662;2023-11-19T06:52:46;96424.00;;;8.76;100.00
72677;BME280;60755;51.374;10.662;2023-11-19T06:55:13;96414.84;;;8.78;100.00
72677;BME280;60755;51.374;10.662;2023-11-19T06:57:40;96424.22;;;8.74;100.00
72677;BME280;60755;51.374;10.662;2023-11-19T07:00:08;96429.94;;;8.71;100.00
72677;BME280;60755;51.374;10.662;2023-11-19T07:02:38;96430.38;;;8.63;100.00
72677;BME280;60755;51.374;10.662;2023-11-19T07:05:06;96432.31;;;8.73;100.00
72677;BME280;60755;51.374;10.662;2023-11-19T07:07:34;96432.94;;;8.80;100.00
72677;BME280;60755;51.374;10.662;2023-11-19T07:10:01;96441.16;;;8.88;100.00
72677;BME280;60755;51.374;10.662;2023-11-19T07:12:30;96429.91;;;8.88;100.00
72677;BME280;60755;51.374;10.662;2023-11-19T07:14:57;96431.00;;;8.92;100.00
72677;BME280;60755;51.374;10.662;2023-11-19T07:17:24;96423.88;;;8.87;100.00
72677;BME280;60755;51.374;10.662;2023-11-19T07:19:52;96429.59;;;9.06;100.00
72677;BME280;60755;51.374;10.662;2023-11-19T07:22:18;96428.38;;;9.14;100.00
72677;BME280;60755;51.374;10.662;2023-11-19T07:24:45;96447.03;;;8.95;100.00
72677;BME280;60755;51.374;10.662;2023-11-19T07:27:12;96437.94;;;9.25;100.00
72677;BME280;60755;51.374;10.662;2023-11-19T07:29:39;96434.13;;;9.38;100.00
72677;BME280;60755;51.374;10.662;2023-11-19T07:32:07;96438.34;;;9.39;100.00
72677;BME280;60755;51.374;10.662;2023-11-19T07:34:34;96429.72;;;9.43;100.00
72677;BME280;60755;51.374;10.662;2023-11-19T07:37:02;96430.19;;;9.35;100.00
72677;BME280;60755;51.374;10.662;2023-11-19T07:39:30;96427.75;;;9.29;100.00
72677;BME280;60755;51.374;10.662;2023-11-19T07:41:57;96430.97;;;9.36;100.00
72677;BME280;60755;51.374;10.662;2023-11-19T07:44:24;96431.06;;;9.46;100.00
72677;BME280;60755;51.374;10.662;2023-11-19T07:46:51;96438.19;;;9.50;100.00
72677;BME280;60755;51.374;10.662;2023-11-19T07:49:18;96436.84;;;9.75;100.00
72677;BME280;60755;51.374;10.662;2023-11-19T07:51:45;96434.41;;;9.63;100.00
72677;BME280;60755;51.374;10.662;2023-11-19T07:54:14;96432.13;;;9.72;100.00
72677;BME280;60755;51.374;10.662;2023-11-19T07:56:41;96428.78;;;9.81;100.00
72677;BME280;60755;51.374;10.662;2023-11-19T07:59:07;96436.34;;;9.78;100.00
72677;BME280;60755;51.374;10.662;2023-11-19T08:01:34;96425.81;;;9.73;100.00
72677;BME280;60755;51.374;10.662;2023-11-19T08:04:01;96422.75;;;9.81;100.00
72677;BME280;60755;51.374;10.662;2023-11-19T08:06:28;96412.78;;;10.15;100.00
72677;BME280;60755;51.374;10.662;2023-11-19T08:08:55;96411.25;;;10.19;100.00
72677;BME280;60755;51.374;10.662;2023-11-19T08:11:24;96415.91;;;10.44;100.00
72677;BME280;60755;51.374;10.662;2023-11-19T08:13:50;96410.34;;;10.41;100.00
72677;BME280;60755;51.374;10.662;2023-11-19T08:16:17;96418.13;;;10.68;100.00
72677;BME280;60755;51.374;10.662;2023-11-19T08:18:44;96409.13;;;10.53;100.00
72677;BME280;60755;51.374;10.662;2023-11-19T08:21:11;96418.63;;;10.64;100.00
72677;BME280;60755;51.374;10.662;2023-11-19T08:23:39;96415.38;;;10.47;100.00
72677;BME280;60755;51.374;10.662;2023-11-19T08:26:06;96419.59;;;10.16;100.00
72677;BME280;60755;51.374;10.662;2023-11-19T08:28:34;96419.47;;;10.33;100.00
72677;BME280;60755;51.374;10.662;2023-11-19T08:31:01;96413.75;;;10.41;100.00
72677;BME280;60755;51.374;10.662;2023-11-19T08:33:29;96415.69;;;10.51;100.00
72677;BME280;60755;51.374;10.662;2023-11-19T08:35:56;96414.41;;;10.63;99.99
72677;BME280;60755;51.374;10.662;2023-11-19T08:38:24;96415.25;;;10.69;100.00
72677;BME280;60755;51.374;10.662;2023-11-19T08:40:51;96424.84;;;10.48;100.00
72677;BME280;60755;51.374;10.662;2023-11-19T08:43:18;96431.19;;;10.57;100.00
72677;BME280;60755;51.374;10.662;2023-11-19T08:45:47;96434.63;;;10.63;100.00
72677;BME280;60755;51.374;10.662;2023-11-19T08:48:14;96442.22;;;10.54;99.71
72677;BME280;60755;51.374;10.662;2023-11-19T08:50:40;96433.13;;;10.72;100.00
72677;BME280;60755;51.374;10.662;2023-11-19T08:53:07;96442.84;;;10.72;100.00
72677;BME280;60755;51.374;10.662;2023-11-19T08:55:34;96430.81;;;10.86;100.00
72677;BME280;60755;51.374;10.662;2023-11-19T08:58:02;96440.56;;;10.90;99.39
72677;BME280;60755;51.374;10.662;2023-11-19T09:00:29;96436.53;;;10.68;99.55
72677;BME280;60755;51.374;10.662;2023-11-19T09:02:59;96442.34;;;10.80;100.00
72677;BME280;60755;51.374;10.662;2023-11-19T09:05:26;96446.94;;;11.05;99.56
72677;BME280;60755;51.374;10.662;2023-11-19T09:07:53;96438.00;;;11.06;98.83
72677;BME280;60755;51.374;10.662;2023-11-19T09:10:20;96443.44;;;10.89;98.03
72677;BME280;60755;51.374;10.662;2023-11-19T09:12:47;96445.66;;;11.07;97.19
72677;BME280;60755;51.374;10.662;2023-11-19T09:15:14;96443.00;;;11.12;98.07
72677;BME280;60755;51.374;10.662;2023-11-19T09:17:41;96439.56;;;11.07;96.83
72677;BME280;60755;51.374;10.662;2023-11-19T09:20:10;96446.00;;;11.31;96.55
72677;BME280;60755;51.374;10.662;2023-11-19T09:22:41;96448.31;;;11.17;97.01
72677;BME280;60755;51.374;10.662;2023-11-19T09:25:08;96456.91;;;11.03;94.37
72677;BME280;60755;51.374;10.662;2023-11-19T09:27:35;96454.03;;;10.99;94.13
72677;BME280;60755;51.374;10.662;2023-11-19T09:30:02;96457.50;;;11.20;92.11
72677;BME280;60755;51.374;10.662;2023-11-19T09:32:29;96462.84;;;11.45;91.09
72677;BME280;60755;51.374;10.662;2023-11-19T09:34:56;96467.88;;;11.47;90.06
72677;BME280;60755;51.374;10.662;2023-11-19T09:37:25;96466.06;;;11.58;89.97
72677;BME280;60755;51.374;10.662;2023-11-19T09:39:52;96465.25;;;11.47;90.19
72677;BME280;60755;51.374;10.662;2023-11-19T09:42:19;96477.91;;;11.55;89.35
72677;BME280;60755;51.374;10.662;2023-11-19T09:44:47;96456.25;;;11.38;89.86
72677;BME280;60755;51.374;10.662;2023-11-19T09:47:14;96468.25;;;11.08;91.32
72677;BME280;60755;51.374;10.662;2023-11-19T09:49:45;96471.88;;;10.92;91.42
72677;BME280;60755;51.374;10.662;2023-11-19T09:52:13;96468.25;;;11.08;91.67
72677;BME280;60755;51.374;10.662;2023-11-19T09:54:42;96471.66;;;11.04;92.37
72677;BME280;60755;51.374;10.662;2023-11-19T09:57:09;96475.69;;;11.27;90.69
72677;BME280;60755;51.374;10.662;2023-11-19T09:59:38;96480.47;;;11.40;90.83
72677;BME280;60755;51.374;10.662;2023-11-19T10:02:06;96480.94;;;11.27;91.08
72677;BME280;60755;51.374;10.662;2023-11-19T10:04:35;96472.72;;;11.13;90.12
72677;BME280;60755;51.374;10.662;2023-11-19T10:07:03;96473.03;;;11.21;89.20
72677;BME280;60755;51.374;10.662;2023-11-19T10:09:30;96485.56;;;10.99;89.22
72677;BME280;60755;51.374;10.662;2023-11-19T10:11:58;96489.03;;;11.10;89.71
72677;BME280;60755;51.374;10.662;2023-11-19T10:14:26;96490.31;;;11.02;90.01
72677;BME280;60755;51.374;10.662;2023-11-19T10:16:55;96483.28;;;11.18;89.07
72677;BME280;60755;51.374;10.662;2023-11-19T10:19:22;96490.13;;;11.19;89.08
72677;BME280;60755;51.374;10.662;2023-11-19T10:21:49;96484.13;;;11.39;86.84
72677;BME280;60755;51.374;10.662;2023-11-19T10:24:16;96488.91;;;11.42;87.72
72677;BME280;60755;51.374;10.662;2023-11-19T10:26:59;96475.78;;;11.57;84.94
72677;BME280;60755;51.374;10.662;2023-11-19T10:29:26;96487.16;;;11.73;84.93
72677;BME280;60755;51.374;10.662;2023-11-19T10:31:57;96469.44;;;11.48;83.92
72677;BME280;60755;51.374;10.662;2023-11-19T10:34:25;96479.00;;;11.80;83.69
72677;BME280;60755;51.374;10.662;2023-11-19T10:36:53;96460.59;;;11.90;83.06
72677;BME280;60755;51.374;10.662;2023-11-19T10:39:20;96471.69;;;12.07;81.89
72677;BME280;60755;51.374;10.662;2023-11-19T10:41:49;96470.13;;;12.11;81.58
72677;BME280;60755;51.374;10.662;2023-11-19T10:47:10;96461.16;;;12.22;79.24
72677;BME280;60755;51.374;10.662;2023-11-19T10:49:39;96459.28;;;12.38;79.49
72677;BME280;60755;51.374;10.662;2023-11-19T10:52:08;96438.50;;;12.16;76.83
72677;BME280;60755;51.374;10.662;2023-11-19T10:54:37;96437.44;;;12.17;77.63
72677;BME280;60755;51.374;10.662;2023-11-19T10:57:09;96441.09;;;11.86;76.97
72677;BME280;60755;51.374;10.662;2023-11-19T10:59:37;96436.09;;;11.79;77.38
72677;BME280;60755;51.374;10.662;2023-11-19T11:02:11;96429.72;;;11.55;76.76
72677;BME280;60755;51.374;10.662;2023-11-19T11:04:41;96440.25;;;11.49;77.33
72677;BME280;60755;51.374;10.662;2023-11-19T11:07:09;96438.41;;;11.60;77.46
72677;BME280;60755;51.374;10.662;2023-11-19T11:09:36;96445.50;;;11.55;76.93
72677;BME280;60755;51.374;10.662;2023-11-19T11:12:06;96422.63;;;11.55;76.87
72677;BME280;60755;51.374;10.662;2023-11-19T11:14:34;96426.31;;;11.59;77.30
72677;BME280;60755;51.374;10.662;2023-11-19T11:17:08;96423.16;;;11.67;76.64
72677;BME280;60755;51.374;10.662;2023-11-19T11:19:38;96434.22;;;11.64;76.86
72677;BME280;60755;51.374;10.662;2023-11-19T11:22:06;96424.75;;;11.68;77.16
72677;BME280;60755;51.374;10.662;2023-11-19T11:24:48;96425.50;;;11.48;76.34
72677;BME280;60755;51.374;10.662;2023-11-19T11:27:38;96417.31;;;11.25;75.90
72677;BME280;60755;51.374;10.662;2023-11-19T11:30:17;96422.59;;;11.40;76.21
72677;BME280;60755;51.374;10.662;2023-11-19T11:32:51;96421.00;;;11.34;77.26
72677;BME280;60755;51.374;10.662;2023-11-19T11:35:31;96419.94;;;11.30;76.46
72677;BME280;60755;51.374;10.662;2023-11-19T11:38:04;96423.16;;;11.47;77.49
72677;BME280;60755;51.374;10.662;2023-11-19T11:40:33;96416.25;;;11.31;76.32
72677;BME280;60755;51.374;10.662;2023-11-19T11:43:01;96423.09;;;11.27;77.06
72677;BME280;60755;51.374;10.662;2023-11-19T11:45:39;96414.19;;;11.53;76.77
72677;BME280;60755;51.374;10.662;2023-11-19T11:48:12;96425.22;;;11.35;75.63
72677;BME280;60755;51.374;10.662;2023-11-19T11:50:52;96415.00;;;11.48;76.33
72677;BME280;60755;51.374;10.662;2023-11-19T11:53:21;96416.06;;;11.58;75.71
72677;BME280;60755;51.374;10.662;2023-11-19T11:55:57;96427.38;;;11.63;75.57
72677;BME280;60755;51.374;10.662;2023-11-19T11:58:27;96430.50;;;11.45;74.88
72677;BME280;60755;51.374;10.662;2023-11-19T12:00:57;96431.03;;;11.52;75.10
72677;BME280;60755;51.374;10.662;2023-11-19T12:03:27;96431.34;;;11.66;74.83
72677;BME280;60755;51.374;10.662;2023-11-19T12:05:56;96435.84;;;11.91;74.22
72677;BME280;60755;51.374;10.662;2023-11-19T12:08:28;96434.56;;;12.03;73.16
72677;BME280;60755;51.374;10.662;2023-11-19T12:10:58;96449.81;;;11.91;74.55
72677;BME280;60755;51.374;10.662;2023-11-19T12:13:43;96441.63;;;12.03;73.88
72677;BME280;60755;51.374;10.662;2023-11-19T12:16:13;96440.59;;;11.89;74.42
72677;BME280;60755;51.374;10.662;2023-11-19T12:18:40;96433.97;;;11.76;74.97
72677;BME280;60755;51.374;10.662;2023-11-19T12:21:09;96438.97;;;11.77;74.67
72677;BME280;60755;51.374;10.662;2023-11-19T12:23:44;96437.69;;;11.85;74.82
72677;BME280;60755;51.374;10.662;2023-11-19T12:26:33;96435.59;;;11.92;75.46
72677;BME280;60755;51.374;10.662;2023-11-19T12:29:01;96436.91;;;12.10;74.68
72677;BME280;60755;51.374;10.662;2023-11-19T12:31:32;96440.88;;;12.28;74.70
72677;BME280;60755;51.374;10.662;2023-11-19T12:34:06;96435.31;;;12.35;73.59
72677;BME280;60755;51.374;10.662;2023-11-19T12:36:40;96435.03;;;12.51;73.69
72677;BME280;60755;51.374;10.662;2023-11-19T12:39:10;96441.59;;;12.64;73.17
72677;BME280;60755;51.374;10.662;2023-11-19T12:41:49;96441.88;;;12.47;72.54
72677;BME280;60755;51.374;10.662;2023-11-19T12:44:17;96445.03;;;12.49;73.30
72677;BME280;60755;51.374;10.662;2023-11-19T12:46:45;96449.03;;;12.21;73.86
72677;BME280;60755;51.374;10.662;2023-11-19T12:49:12;96436.38;;;12.03;75.49
72677;BME280;60755;51.374;10.662;2023-11-19T12:51:41;96444.53;;;11.91;75.48
72677;BME280;60755;51.374;10.662;2023-11-19T12:54:08;96452.19;;;11.83;76.55
72677;BME280;60755;51.374;10.662;2023-11-19T12:56:37;96447.44;;;11.90;76.37
72677;BME280;60755;51.374;10.662;2023-11-19T12:59:21;96449.47;;;11.67;76.00